createdAt,value
2023-05-18T00:00:19.528Z,1.00
2023-05-18T00:02:48.596Z,1.00
2023-05-18T00:05:18.928Z,0.90
2023-05-18T00:07:46.563Z,1.13
2023-05-18T00:10:13.951Z,1.00
2023-05-18T00:12:41.718Z,1.13
2023-05-18T00:15:10.451Z,1.20
2023-05-18T00:17:37.753Z,0.90
2023-05-18T00:20:05.771Z,0.95
2023-05-18T00:22:33.073Z,0.88
2023-05-18T00:25:00.436Z,1.60
2023-05-18T00:27:27.594Z,0.93
2023-05-18T00:29:54.872Z,1.02
2023-05-18T00:32:22.133Z,1.05
2023-05-18T00:34:49.453Z,0.90
2023-05-18T00:37:16.736Z,1.37
2023-05-18T00:39:45.559Z,1.02
2023-05-18T00:42:13.916Z,1.05
2023-05-18T00:44:41.224Z,1.20
2023-05-18T00:47:09.571Z,1.00
2023-05-18T00:49:36.892Z,1.20
2023-05-18T00:52:05.992Z,1.17
2023-05-18T00:54:34.456Z,1.00
2023-05-18T00:57:02.381Z,1.05
2023-05-18T00:59:30.772Z,1.70
2023-05-18T01:01:58.379Z,1.00
2023-05-18T01:04:27.884Z,0.90
2023-05-18T01:06:56.701Z,0.90
2023-05-18T01:09:24.741Z,1.23
2023-05-18T01:12:22.108Z,1.10
2023-05-18T01:15:15.627Z,1.20
2023-05-18T01:18:05.476Z,1.33
2023-05-18T01:20:57.551Z,1.27
2023-05-18T01:23:24.776Z,1.35
2023-05-18T01:25:55.014Z,1.55
2023-05-18T01:28:30.065Z,1.20
2023-05-18T01:30:59.134Z,1.13
2023-05-18T01:33:26.567Z,1.13
2023-05-18T01:35:53.920Z,1.40
2023-05-18T01:38:26.375Z,1.13
2023-05-18T01:41:23.286Z,1.57
2023-05-18T01:44:04.527Z,1.13
2023-05-18T01:47:03.876Z,1.38
2023-05-18T01:49:50.481Z,1.80
2023-05-18T01:52:30.971Z,2.15
2023-05-18T01:55:01.974Z,1.70
2023-05-18T01:57:32.234Z,1.83
2023-05-18T02:00:00.288Z,1.75
2023-05-18T02:02:29.541Z,2.17
2023-05-18T02:04:56.841Z,2.00
2023-05-18T02:07:24.115Z,2.37
2023-05-18T02:09:51.375Z,2.03
2023-05-18T02:12:18.706Z,2.08
2023-05-18T02:14:45.962Z,2.10
2023-05-18T02:17:13.563Z,1.98
2023-05-18T02:19:41.574Z,1.87
2023-05-18T02:22:08.911Z,1.88
2023-05-18T02:24:36.861Z,2.25
2023-05-18T02:27:05.532Z,2.05
2023-05-18T02:29:32.770Z,1.88
2023-05-18T02:32:00.061Z,2.00
2023-05-18T02:34:27.630Z,1.60
2023-05-18T02:36:58.106Z,1.95
2023-05-18T02:39:25.525Z,2.05
2023-05-18T02:41:52.717Z,2.00
2023-05-18T02:44:20.512Z,2.17
2023-05-18T02:46:49.213Z,2.03
2023-05-18T02:49:16.563Z,2.03
2023-05-18T02:51:43.874Z,2.90
2023-05-18T02:54:11.971Z,2.20
2023-05-18T02:56:41.871Z,2.60
2023-05-18T02:59:28.775Z,2.25
2023-05-18T03:01:56.002Z,2.40
2023-05-18T03:04:25.942Z,2.05
2023-05-18T03:06:57.441Z,1.92
2023-05-18T03:09:24.970Z,2.57
2023-05-18T03:11:55.625Z,2.35
2023-05-18T03:14:22.973Z,3.60
2023-05-18T03:16:54.504Z,2.65
2023-05-18T03:19:24.062Z,2.88
2023-05-18T03:21:51.269Z,2.90
2023-05-18T03:24:18.536Z,2.80
2023-05-18T03:26:48.720Z,2.97
2023-05-18T03:29:16.148Z,2.47
2023-05-18T03:31:43.984Z,2.83
2023-05-18T03:34:12.810Z,3.23
2023-05-18T03:36:40.151Z,2.80
2023-05-18T03:39:07.863Z,2.67
2023-05-18T03:41:35.209Z,2.83
2023-05-18T03:44:02.974Z,2.90
2023-05-18T03:46:31.456Z,3.10
2023-05-18T03:48:59.109Z,2.95
2023-05-18T03:51:33.910Z,3.17
2023-05-18T03:54:02.058Z,3.10
2023-05-18T03:56:31.263Z,2.80
2023-05-18T03:59:01.362Z,2.87
2023-05-18T04:01:30.372Z,3.05
2023-05-18T04:03:58.089Z,2.88
2023-05-18T04:06:26.662Z,3.22
2023-05-18T04:08:54.856Z,3.50
2023-05-18T04:11:22.634Z,3.00
2023-05-18T04:13:50.872Z,2.95
2023-05-18T04:16:18.427Z,3.13
2023-05-18T04:18:45.815Z,3.08
2023-05-18T04:21:13.185Z,2.80
2023-05-18T04:23:40.881Z,2.90
2023-05-18T04:26:09.097Z,2.90
2023-05-18T04:28:37.778Z,3.25
2023-05-18T04:31:06.084Z,3.15
2023-05-18T04:33:34.115Z,3.50
2023-05-18T04:36:05.002Z,2.83
2023-05-18T04:38:34.718Z,3.10
2023-05-18T04:41:06.694Z,2.80
2023-05-18T04:43:34.528Z,2.63
2023-05-18T04:46:02.214Z,3.17
2023-05-18T04:48:32.103Z,3.23
2023-05-18T04:51:01.498Z,2.55
2023-05-18T04:53:28.816Z,3.20
2023-05-18T04:55:56.784Z,2.90
2023-05-18T04:58:24.103Z,3.30
2023-05-18T05:00:51.371Z,3.17
2023-05-18T05:03:18.745Z,3.10
2023-05-18T05:05:46.231Z,3.10
2023-05-18T05:08:13.555Z,3.42
2023-05-18T05:10:40.859Z,3.00
2023-05-18T05:13:09.903Z,3.20
2023-05-18T05:15:37.211Z,2.90
2023-05-18T05:18:04.719Z,2.30
2023-05-18T05:20:32.016Z,4.10
2023-05-18T05:22:59.314Z,3.33
2023-05-18T05:25:27.546Z,2.77
2023-05-18T05:27:54.784Z,3.20
2023-05-18T05:30:22.422Z,3.17
2023-05-18T05:32:49.766Z,3.20
2023-05-18T05:35:17.423Z,2.92
2023-05-18T05:37:45.854Z,2.90
2023-05-18T05:40:13.345Z,2.88
2023-05-18T05:42:44.315Z,3.10
2023-05-18T05:45:12.692Z,3.20
2023-05-18T05:47:49.633Z,2.35
2023-05-18T05:50:18.701Z,2.70
2023-05-18T05:52:47.914Z,2.80
2023-05-18T05:55:15.884Z,3.15
2023-05-18T05:57:43.209Z,2.92
2023-05-18T06:00:12.901Z,2.97
2023-05-18T06:02:51.362Z,3.17
2023-05-18T06:05:27.351Z,2.88
2023-05-18T06:07:56.560Z,2.95
2023-05-18T06:10:24.452Z,3.38
2023-05-18T06:12:51.959Z,3.22
2023-05-18T06:15:20.460Z,3.40
2023-05-18T06:17:47.762Z,2.97
2023-05-18T06:20:15.946Z,3.17
2023-05-18T06:22:43.822Z,3.97
2023-05-18T06:25:18.840Z,3.53
2023-05-18T06:28:02.101Z,3.03
2023-05-18T06:30:48.037Z,2.85
2023-05-18T06:33:21.492Z,3.20
2023-05-18T06:35:48.720Z,3.78
2023-05-18T06:38:15.970Z,3.63
2023-05-18T06:40:43.494Z,3.17
2023-05-18T06:43:10.810Z,3.15
2023-05-18T06:45:46.374Z,3.70
2023-05-18T06:48:29.080Z,3.38
2023-05-18T06:50:56.552Z,4.15
2023-05-18T06:53:23.835Z,2.63
2023-05-18T06:55:51.034Z,3.05
2023-05-18T06:58:18.224Z,3.22
2023-05-18T07:00:46.469Z,3.55
2023-05-18T07:03:13.909Z,3.35
2023-05-18T07:05:41.306Z,2.77
2023-05-18T07:08:09.645Z,3.00
2023-05-18T07:10:37.316Z,3.42
2023-05-18T07:13:04.573Z,3.00
2023-05-18T07:15:32.078Z,3.25
2023-05-18T07:17:59.476Z,3.40
2023-05-18T07:20:26.925Z,3.45
2023-05-18T07:22:57.272Z,3.10
2023-05-18T07:25:24.906Z,3.05
2023-05-18T07:27:54.794Z,2.83
2023-05-18T07:30:22.781Z,3.03
2023-05-18T07:32:51.417Z,3.45
2023-05-18T07:35:22.730Z,3.22
2023-05-18T07:37:52.100Z,3.10
2023-05-18T07:40:19.624Z,3.95
2023-05-18T07:42:47.223Z,3.77
2023-05-18T07:45:14.473Z,3.10
2023-05-18T07:47:41.795Z,3.70
2023-05-18T07:50:09.534Z,4.22
2023-05-18T07:52:36.830Z,4.07
2023-05-18T07:55:04.398Z,3.93
2023-05-18T07:57:31.747Z,3.58
2023-05-18T07:59:58.998Z,3.97
2023-05-18T08:02:26.341Z,3.58
2023-05-18T08:04:53.609Z,3.67
2023-05-18T08:07:21.520Z,4.10
2023-05-18T08:09:48.759Z,4.03
2023-05-18T08:12:16.056Z,4.63
2023-05-18T08:14:43.253Z,3.97
2023-05-18T08:17:10.838Z,4.10
2023-05-18T08:19:39.824Z,3.90
2023-05-18T08:22:09.081Z,3.80
2023-05-18T08:24:36.322Z,3.58
2023-05-18T08:27:03.763Z,3.85
2023-05-18T08:29:31.008Z,3.67
2023-05-18T08:31:58.263Z,3.60
2023-05-18T08:34:25.909Z,3.17
2023-05-18T08:36:53.780Z,3.15
2023-05-18T08:39:22.537Z,2.97
2023-05-18T08:42:02.840Z,3.45
2023-05-18T08:44:38.712Z,3.50
2023-05-18T08:47:10.358Z,3.28
2023-05-18T08:49:38.364Z,3.33
2023-05-18T08:52:07.955Z,2.95
2023-05-18T08:54:37.932Z,3.47
2023-05-18T08:57:11.869Z,3.10
2023-05-18T08:59:43.554Z,3.08
2023-05-18T09:02:11.487Z,3.50
2023-05-18T09:04:40.843Z,3.00
2023-05-18T09:07:10.594Z,3.63
2023-05-18T09:09:38.599Z,3.50
2023-05-18T09:12:06.690Z,2.58
2023-05-18T09:14:37.334Z,3.15
2023-05-18T09:17:05.958Z,3.10
2023-05-18T09:19:33.225Z,2.67
2023-05-18T09:22:00.423Z,2.60
2023-05-18T09:24:27.595Z,2.40
2023-05-18T09:26:54.952Z,2.58
2023-05-18T09:29:24.331Z,1.90
2023-05-18T09:31:53.494Z,2.00
2023-05-18T09:34:21.675Z,1.53
2023-05-18T09:36:53.069Z,1.67
2023-05-18T09:39:20.491Z,1.27
2023-05-18T09:41:57.191Z,1.40
2023-05-18T09:44:36.952Z,1.25
2023-05-18T09:47:09.840Z,1.13
2023-05-18T09:49:37.782Z,1.65
2023-05-18T09:52:08.373Z,1.45
2023-05-18T09:54:37.205Z,1.23
2023-05-18T09:59:36.799Z,1.67
2023-05-18T10:02:06.162Z,1.67
2023-05-18T10:04:43.311Z,1.70
2023-05-18T10:07:12.488Z,1.00
2023-05-18T10:09:44.709Z,1.05
2023-05-18T10:12:17.530Z,1.50
2023-05-18T10:14:45.976Z,1.38
2023-05-18T10:17:16.787Z,1.30
2023-05-18T10:19:46.150Z,1.08
2023-05-18T10:22:16.597Z,1.20
2023-05-18T10:24:50.072Z,1.57
2023-05-18T10:27:20.807Z,1.25
2023-05-18T10:29:50.801Z,1.17
2023-05-18T10:32:20.787Z,1.20
2023-05-18T10:34:48.325Z,1.40
2023-05-18T10:37:17.143Z,1.20
2023-05-18T10:39:45.873Z,1.00
2023-05-18T10:42:16.242Z,1.40
2023-05-18T10:44:45.118Z,1.30
2023-05-18T10:47:14.862Z,1.00
2023-05-18T10:49:48.648Z,1.30
2023-05-18T10:52:20.911Z,1.20
2023-05-18T10:54:48.874Z,1.20
2023-05-18T10:57:19.967Z,1.20
2023-05-18T10:59:48.620Z,1.50
2023-05-18T11:02:18.548Z,1.20
2023-05-18T11:04:53.309Z,1.33
2023-05-18T11:07:21.681Z,1.45
2023-05-18T11:09:49.747Z,1.30
2023-05-18T11:12:20.051Z,1.30
2023-05-18T11:14:50.409Z,1.10
2023-05-18T11:17:25.371Z,0.90
2023-05-18T11:20:09.227Z,1.00
2023-05-18T11:22:58.331Z,1.55
2023-05-18T11:25:25.828Z,1.77
2023-05-18T11:28:01.931Z,1.83
2023-05-18T11:30:36.467Z,1.98
2023-05-18T11:33:16.060Z,1.70
2023-05-18T11:36:15.309Z,1.65
2023-05-18T11:39:01.666Z,1.60
2023-05-18T11:41:41.829Z,1.43
2023-05-18T11:44:12.460Z,1.50
2023-05-18T11:46:53.314Z,1.50
2023-05-18T11:49:26.306Z,1.75
2023-05-18T11:52:06.551Z,1.60
2023-05-18T11:54:38.000Z,1.57
2023-05-18T11:57:05.585Z,2.13
2023-05-18T11:59:42.415Z,1.67
2023-05-18T12:02:11.902Z,1.77
2023-05-18T12:04:48.059Z,1.70
2023-05-18T12:07:15.707Z,1.60
2023-05-18T12:09:45.706Z,1.95
2023-05-18T12:12:17.245Z,1.80
2023-05-18T12:14:45.550Z,1.48
2023-05-18T12:17:12.836Z,1.83
2023-05-18T12:19:44.397Z,1.70
2023-05-18T12:22:12.393Z,1.80
2023-05-18T12:24:40.947Z,2.17
2023-05-18T12:27:10.201Z,1.98
2023-05-18T12:29:41.769Z,2.13
2023-05-18T12:32:11.156Z,1.67
2023-05-18T12:34:39.548Z,1.42
2023-05-18T12:37:10.058Z,1.40
2023-05-18T12:39:38.016Z,1.30
2023-05-18T12:42:13.439Z,1.10
2023-05-18T12:44:44.928Z,1.53
2023-05-18T12:47:13.220Z,1.80
2023-05-18T12:49:44.558Z,1.80
2023-05-18T12:52:13.553Z,1.77
2023-05-18T12:54:58.730Z,1.20
2023-05-18T12:57:27.919Z,1.53
2023-05-18T12:59:55.593Z,1.63
2023-05-18T13:02:36.984Z,1.30
2023-05-18T13:05:09.566Z,1.17
2023-05-18T13:07:41.866Z,1.33
2023-05-18T13:10:10.666Z,1.17
2023-05-18T13:12:44.857Z,1.05
2023-05-18T13:15:17.888Z,1.33
2023-05-18T13:17:59.305Z,1.30
2023-05-18T13:20:36.572Z,1.52
2023-05-18T13:23:10.854Z,1.40
2023-05-18T13:25:42.012Z,1.10
2023-05-18T13:28:12.869Z,1.30
2023-05-18T13:30:42.434Z,1.20
2023-05-18T13:33:10.702Z,1.33
2023-05-18T13:35:40.772Z,1.27
2023-05-18T13:38:12.739Z,1.10
2023-05-18T13:40:41.287Z,1.50
2023-05-18T13:43:10.933Z,1.83
2023-05-18T13:45:40.113Z,1.67
2023-05-18T13:48:10.169Z,2.17
2023-05-18T13:50:39.092Z,2.30
2023-05-18T13:53:06.812Z,1.90
2023-05-18T13:55:35.155Z,1.45
2023-05-18T13:58:02.673Z,1.20
2023-05-18T14:00:33.301Z,1.20
2023-05-18T14:03:01.385Z,1.30
2023-05-18T14:05:29.032Z,1.20
2023-05-18T14:07:56.913Z,1.50
2023-05-18T14:10:24.343Z,1.17
2023-05-18T14:12:51.596Z,1.30
2023-05-18T14:15:18.808Z,1.13
2023-05-18T14:17:46.098Z,1.30
2023-05-18T14:20:13.565Z,1.40
2023-05-18T14:22:41.016Z,1.45
2023-05-18T14:25:08.615Z,1.87
2023-05-18T14:27:35.978Z,1.48
2023-05-18T14:30:03.465Z,1.27
2023-05-18T14:32:30.773Z,0.77
2023-05-18T14:34:58.623Z,1.48
2023-05-18T14:37:26.408Z,1.03
2023-05-18T14:39:53.776Z,1.35
2023-05-18T14:42:21.100Z,0.90
2023-05-18T14:44:48.333Z,1.45
2023-05-18T14:47:15.798Z,1.50
2023-05-18T14:49:42.975Z,1.50
2023-05-18T14:52:11.271Z,1.63
2023-05-18T14:54:38.679Z,1.88
2023-05-18T14:57:05.890Z,1.58
2023-05-18T14:59:33.096Z,1.52
2023-05-18T15:02:00.709Z,1.90
2023-05-18T15:04:27.935Z,2.38
2023-05-18T15:06:55.226Z,2.35
2023-05-18T15:09:23.580Z,1.70
2023-05-18T15:11:52.257Z,1.75
2023-05-18T15:14:19.820Z,1.90
2023-05-18T15:16:47.242Z,1.52
2023-05-18T15:19:14.690Z,1.60
2023-05-18T15:21:42.912Z,1.40
2023-05-18T15:24:10.259Z,1.58
2023-05-18T15:26:38.115Z,1.60
2023-05-18T15:29:05.329Z,1.33
2023-05-18T15:31:33.070Z,1.48
2023-05-18T15:34:00.501Z,1.50
2023-05-18T15:36:28.053Z,1.60
2023-05-18T15:38:55.222Z,1.50
2023-05-18T15:41:22.697Z,1.20
2023-05-18T15:43:49.851Z,0.95
2023-05-18T15:46:17.143Z,1.38
2023-05-18T15:48:44.371Z,1.50
2023-05-18T15:51:11.631Z,1.20
2023-05-18T15:53:38.958Z,1.20
2023-05-18T15:56:06.688Z,1.05
2023-05-18T15:58:34.373Z,0.80
2023-05-18T16:01:01.696Z,1.00
2023-05-18T16:03:30.004Z,0.80
2023-05-18T16:05:57.563Z,0.80
2023-05-18T16:08:24.724Z,0.90
2023-05-18T16:10:52.092Z,1.02
2023-05-18T16:13:20.016Z,1.20
2023-05-18T16:15:47.355Z,0.90
2023-05-18T16:18:14.751Z,0.85
2023-05-18T16:20:42.037Z,0.90
2023-05-18T16:23:09.341Z,0.88
2023-05-18T16:25:36.587Z,1.27
2023-05-18T16:28:03.850Z,0.90
2023-05-18T16:30:31.404Z,1.77
2023-05-18T16:32:58.725Z,1.50
2023-05-18T16:35:27.214Z,1.50
2023-05-18T16:37:54.459Z,1.10
2023-05-18T16:40:21.709Z,0.77
2023-05-18T16:42:48.996Z,0.90
2023-05-18T16:45:16.339Z,0.73
2023-05-18T16:47:44.614Z,0.90
2023-05-18T16:50:11.926Z,0.85
2023-05-18T16:52:39.214Z,1.33
2023-05-18T16:55:07.054Z,1.10
2023-05-18T16:57:34.298Z,1.20
2023-05-18T17:00:01.581Z,1.20
2023-05-18T17:02:29.213Z,1.40
2023-05-18T17:04:56.792Z,1.10
2023-05-18T17:07:24.143Z,0.95
2023-05-18T17:09:51.357Z,1.70
2023-05-18T17:12:18.581Z,1.10
2023-05-18T17:14:45.940Z,1.50
2023-05-18T17:17:13.236Z,1.50
2023-05-18T17:19:41.502Z,1.33
2023-05-18T17:22:11.626Z,1.67
2023-05-18T17:24:38.997Z,1.50
2023-05-18T17:27:06.284Z,1.25
2023-05-18T17:29:33.610Z,0.90
2023-05-18T17:32:01.047Z,1.17
2023-05-18T17:34:30.517Z,1.17
2023-05-18T17:36:58.725Z,1.65
2023-05-18T17:39:26.233Z,1.00
2023-05-18T17:41:54.452Z,1.47
2023-05-18T17:44:23.926Z,1.30
2023-05-18T17:46:51.382Z,1.38
2023-05-18T17:49:18.665Z,1.30
2023-05-18T17:51:46.237Z,1.08
2023-05-18T17:54:13.489Z,1.20
2023-05-18T17:56:41.130Z,1.27
2023-05-18T17:59:08.645Z,1.42
2023-05-18T18:01:37.493Z,1.40
2023-05-18T18:04:04.993Z,1.77
2023-05-18T18:06:35.671Z,1.50
2023-05-18T18:09:04.817Z,1.38
2023-05-18T18:11:32.128Z,1.88
2023-05-18T18:13:59.929Z,1.67
2023-05-18T18:16:27.273Z,1.27
2023-05-18T18:18:54.793Z,1.77
2023-05-18T18:21:21.982Z,2.03
2023-05-18T18:23:49.281Z,2.33
2023-05-18T18:26:16.445Z,1.92
2023-05-18T18:28:43.859Z,1.90
2023-05-18T18:31:11.094Z,1.90
2023-05-18T18:33:38.645Z,2.15
2023-05-18T18:36:07.615Z,2.40
2023-05-18T18:38:35.218Z,2.17
2023-05-18T18:41:04.985Z,2.03
2023-05-18T18:43:32.704Z,2.20
2023-05-18T18:46:00.081Z,2.38
2023-05-18T18:48:27.487Z,2.85
2023-05-18T18:50:54.752Z,2.58
2023-05-18T18:53:22.500Z,3.00
2023-05-18T18:55:49.781Z,3.13
2023-05-18T18:58:17.115Z,2.78
2023-05-18T19:00:44.458Z,3.33
2023-05-18T19:03:14.461Z,2.88
2023-05-18T19:05:42.177Z,3.15
2023-05-18T19:08:09.542Z,3.00
2023-05-18T19:10:36.894Z,2.70
2023-05-18T19:13:07.100Z,2.65
2023-05-18T19:15:35.100Z,2.78
2023-05-18T19:18:03.207Z,3.08
2023-05-18T19:20:30.503Z,2.40
2023-05-18T19:22:58.075Z,3.20
2023-05-18T19:25:26.347Z,2.90
2023-05-18T19:27:54.104Z,2.78
2023-05-18T19:30:22.495Z,2.17
2023-05-18T19:32:53.194Z,2.80
2023-05-18T19:35:21.913Z,2.72
2023-05-18T19:37:49.425Z,3.10
2023-05-18T19:40:17.133Z,3.13
2023-05-18T19:42:44.418Z,2.67
2023-05-18T19:45:11.726Z,2.50
2023-05-18T19:47:38.937Z,3.00
2023-05-18T19:50:07.141Z,3.00
2023-05-18T19:52:34.498Z,2.28
2023-05-18T19:55:02.358Z,2.88
2023-05-18T19:57:30.016Z,3.23
2023-05-18T19:59:58.072Z,2.97
2023-05-18T20:02:25.792Z,2.92
2023-05-18T20:04:55.965Z,3.08
2023-05-18T20:07:23.896Z,3.33
2023-05-18T20:09:53.048Z,2.60
2023-05-18T20:12:20.539Z,2.72
2023-05-18T20:14:48.439Z,3.17
2023-05-18T20:17:16.841Z,2.55
2023-05-18T20:19:50.537Z,3.25
2023-05-18T20:22:18.316Z,2.77
2023-05-18T20:24:46.115Z,2.47
2023-05-18T20:27:16.790Z,2.72
2023-05-18T20:29:44.132Z,2.65
2023-05-18T20:32:11.675Z,3.10
2023-05-18T20:34:41.346Z,3.03
2023-05-18T20:37:10.947Z,3.10
2023-05-18T20:39:39.932Z,2.90
2023-05-18T20:42:07.868Z,3.00
2023-05-18T20:44:35.105Z,3.50
2023-05-18T20:47:02.637Z,3.17
2023-05-18T20:49:30.055Z,3.35
2023-05-18T20:51:57.881Z,2.92
2023-05-18T20:54:25.191Z,3.20
2023-05-18T20:56:52.461Z,3.45
2023-05-18T20:59:19.789Z,3.47
2023-05-18T21:01:48.070Z,3.35
2023-05-18T21:04:17.196Z,3.17
2023-05-18T21:06:45.833Z,3.17
2023-05-18T21:09:13.095Z,3.65
2023-05-18T21:11:40.547Z,3.37
2023-05-18T21:14:07.969Z,3.13
2023-05-18T21:16:35.354Z,3.20
2023-05-18T21:19:02.659Z,3.10
2023-05-18T21:21:29.937Z,3.13
2023-05-18T21:23:57.436Z,3.10
2023-05-18T21:26:24.762Z,2.95
2023-05-18T21:28:52.418Z,3.25
2023-05-18T21:31:19.812Z,3.47
2023-05-18T21:33:48.384Z,3.15
2023-05-18T21:36:15.855Z,3.23
2023-05-18T21:38:43.141Z,3.42
2023-05-18T21:41:10.416Z,3.22
2023-05-18T21:43:37.687Z,3.08
2023-05-18T21:46:06.449Z,3.60
2023-05-18T21:48:35.120Z,3.83
2023-05-18T21:51:04.191Z,3.72
2023-05-18T21:53:31.445Z,3.33
2023-05-18T21:55:58.732Z,2.95
2023-05-18T21:58:25.948Z,3.95
2023-05-18T22:00:53.166Z,3.40
2023-05-18T22:03:21.824Z,3.22
2023-05-18T22:05:49.766Z,3.70
2023-05-18T22:08:17.071Z,3.38
2023-05-18T22:10:44.901Z,3.55
2023-05-18T22:13:12.242Z,3.60
2023-05-18T22:15:40.438Z,3.47
2023-05-18T22:18:07.889Z,3.47
2023-05-18T22:20:35.304Z,3.53
2023-05-18T22:23:03.498Z,3.38
2023-05-18T22:25:31.052Z,4.10
2023-05-18T22:27:58.271Z,3.65
2023-05-18T22:30:25.554Z,3.40
2023-05-18T22:32:52.896Z,3.55
2023-05-18T22:35:20.692Z,3.97
2023-05-18T22:37:47.948Z,4.17
2023-05-18T22:40:15.262Z,4.03
2023-05-18T22:42:42.443Z,3.75
2023-05-18T22:45:10.199Z,3.63
2023-05-18T22:47:39.060Z,4.47
2023-05-18T22:50:07.451Z,3.33
2023-05-18T22:52:35.018Z,4.45
2023-05-18T22:55:02.717Z,3.97
2023-05-18T22:57:30.020Z,3.80
2023-05-18T22:59:57.212Z,3.40
2023-05-18T23:02:24.408Z,4.03
2023-05-18T23:04:51.672Z,4.15
2023-05-18T23:07:19.426Z,4.25
2023-05-18T23:09:46.632Z,4.38
2023-05-18T23:12:13.917Z,3.70
2023-05-18T23:14:41.183Z,4.90
2023-05-18T23:17:08.479Z,4.70
2023-05-18T23:19:36.199Z,3.97
2023-05-18T23:22:03.941Z,4.38
2023-05-18T23:24:31.244Z,3.92
2023-05-18T23:26:58.560Z,3.93
2023-05-18T23:29:25.723Z,4.35
2023-05-18T23:31:53.064Z,4.60
2023-05-18T23:34:20.925Z,3.97
2023-05-18T23:36:53.643Z,4.18
2023-05-18T23:39:22.867Z,4.27
2023-05-18T23:41:52.156Z,4.03
2023-05-18T23:44:19.691Z,3.90
2023-05-18T23:46:47.219Z,4.25
2023-05-18T23:49:14.726Z,3.88
2023-05-18T23:51:43.140Z,4.70
2023-05-18T23:54:11.063Z,4.40
2023-05-18T23:56:38.816Z,4.50
2023-05-18T23:59:06.832Z,4.82
